sensor_id;sensor_type;location;lat;lon;timestamp;P1;durP1;ratioP1;P2;durP2;ratioP2
22080;SDS011;11207;59.512;18.050;2022-11-10T00:00:48;8.23;;;4.90;;
22080;SDS011;11207;59.512;18.050;2022-11-10T00:03:14;9.47;;;4.33;;
22080;SDS011;11207;59.512;18.050;2022-11-10T00:05:40;10.90;;;4.70;;
22080;SDS011;11207;59.512;18.050;2022-11-10T00:08:06;8.73;;;5.23;;
22080;SDS011;11207;59.512;18.050;2022-11-10T00:10:34;7.80;;;4.90;;
22080;SDS011;11207;59.512;18.050;2022-11-10T00:13:21;9.23;;;4.80;;
22080;SDS011;11207;59.512;18.050;2022-11-10T00:15:50;8.87;;;5.07;;
22080;SDS011;11207;59.512;18.050;2022-11-10T00:18:35;10.47;;;5.17;;
22080;SDS011;11207;59.512;18.050;2022-11-10T00:21:03;8.43;;;4.93;;
22080;SDS011;11207;59.512;18.050;2022-11-10T00:23:33;10.90;;;5.27;;
22080;SDS011;11207;59.512;18.050;2022-11-10T00:25:59;8.77;;;4.93;;
22080;SDS011;11207;59.512;18.050;2022-11-10T00:28:25;11.20;;;5.60;;
22080;SDS011;11207;59.512;18.050;2022-11-10T00:30:54;6.97;;;4.33;;
22080;SDS011;11207;59.512;18.050;2022-11-10T00:33:20;7.87;;;4.47;;
22080;SDS011;11207;59.512;18.050;2022-11-10T00:35:46;8.30;;;5.10;;
22080;SDS011;11207;59.512;18.050;2022-11-10T00:38:12;7.33;;;4.87;;
22080;SDS011;11207;59.512;18.050;2022-11-10T00:40:37;7.00;;;4.73;;
22080;SDS011;11207;59.512;18.050;2022-11-10T00:43:03;11.40;;;5.40;;
22080;SDS011;11207;59.512;18.050;2022-11-10T00:45:28;10.33;;;5.13;;
22080;SDS011;11207;59.512;18.050;2022-11-10T00:47:54;8.73;;;4.97;;
22080;SDS011;11207;59.512;18.050;2022-11-10T00:50:19;10.20;;;5.17;;
22080;SDS011;11207;59.512;18.050;2022-11-10T00:52:45;8.83;;;4.67;;
22080;SDS011;11207;59.512;18.050;2022-11-10T00:55:10;14.57;;;5.10;;
22080;SDS011;11207;59.512;18.050;2022-11-10T00:57:36;8.40;;;4.83;;
22080;SDS011;11207;59.512;18.050;2022-11-10T01:00:02;11.57;;;4.97;;
22080;SDS011;11207;59.512;18.050;2022-11-10T01:02:28;9.07;;;4.80;;
22080;SDS011;11207;59.512;18.050;2022-11-10T01:04:54;6.53;;;4.90;;
22080;SDS011;11207;59.512;18.050;2022-11-10T01:07:19;9.73;;;5.00;;
22080;SDS011;11207;59.512;18.050;2022-11-10T01:09:45;11.17;;;4.87;;
22080;SDS011;11207;59.512;18.050;2022-11-10T01:12:11;8.83;;;4.60;;
22080;SDS011;11207;59.512;18.050;2022-11-10T01:14:36;8.37;;;4.90;;
22080;SDS011;11207;59.512;18.050;2022-11-10T01:17:02;10.10;;;5.20;;
22080;SDS011;11207;59.512;18.050;2022-11-10T01:19:27;10.47;;;5.10;;
22080;SDS011;11207;59.512;18.050;2022-11-10T01:21:53;7.27;;;5.00;;
22080;SDS011;11207;59.512;18.050;2022-11-10T01:24:19;8.67;;;4.90;;
22080;SDS011;11207;59.512;18.050;2022-11-10T01:26:46;8.47;;;4.73;;
22080;SDS011;11207;59.512;18.050;2022-11-10T01:29:12;11.30;;;5.67;;
22080;SDS011;11207;59.512;18.050;2022-11-10T01:31:38;10.40;;;4.63;;
22080;SDS011;11207;59.512;18.050;2022-11-10T01:34:03;8.43;;;4.63;;
22080;SDS011;11207;59.512;18.050;2022-11-10T01:36:29;12.80;;;5.47;;
22080;SDS011;11207;59.512;18.050;2022-11-10T01:38:55;12.53;;;5.37;;
22080;SDS011;11207;59.512;18.050;2022-11-10T01:41:21;13.47;;;5.37;;
22080;SDS011;11207;59.512;18.050;2022-11-10T01:43:47;7.60;;;4.63;;
22080;SDS011;11207;59.512;18.050;2022-11-10T01:46:13;10.57;;;4.70;;
22080;SDS011;11207;59.512;18.050;2022-11-10T01:51:18;17.60;;;5.60;;
22080;SDS011;11207;59.512;18.050;2022-11-10T01:54:08;12.10;;;5.63;;
22080;SDS011;11207;59.512;18.050;2022-11-10T01:56:44;9.77;;;4.43;;
22080;SDS011;11207;59.512;18.050;2022-11-10T01:59:13;10.70;;;4.63;;
22080;SDS011;11207;59.512;18.050;2022-11-10T02:01:43;9.43;;;5.10;;
22080;SDS011;11207;59.512;18.050;2022-11-10T02:04:13;7.40;;;4.33;;
22080;SDS011;11207;59.512;18.050;2022-11-10T02:06:41;12.80;;;5.13;;
22080;SDS011;11207;59.512;18.050;2022-11-10T02:09:09;12.43;;;5.10;;
22080;SDS011;11207;59.512;18.050;2022-11-10T02:11:35;11.00;;;4.93;;
22080;SDS011;11207;59.512;18.050;2022-11-10T02:14:02;12.37;;;5.10;;
22080;SDS011;11207;59.512;18.050;2022-11-10T02:16:29;10.13;;;4.40;;
22080;SDS011;11207;59.512;18.050;2022-11-10T02:18:55;9.33;;;4.97;;
22080;SDS011;11207;59.512;18.050;2022-11-10T02:21:21;10.33;;;4.93;;
22080;SDS011;11207;59.512;18.050;2022-11-10T02:23:49;6.53;;;4.50;;
22080;SDS011;11207;59.512;18.050;2022-11-10T02:26:24;9.47;;;4.80;;
22080;SDS011;11207;59.512;18.050;2022-11-10T02:28:51;6.27;;;4.53;;
22080;SDS011;11207;59.512;18.050;2022-11-10T02:31:17;9.43;;;4.47;;
22080;SDS011;11207;59.512;18.050;2022-11-10T02:33:43;9.97;;;4.17;;
22080;SDS011;11207;59.512;18.050;2022-11-10T02:36:08;6.20;;;4.13;;
22080;SDS011;11207;59.512;18.050;2022-11-10T02:38:34;9.50;;;4.53;;
22080;SDS011;11207;59.512;18.050;2022-11-10T02:41:00;9.27;;;4.50;;
22080;SDS011;11207;59.512;18.050;2022-11-10T02:43:26;12.07;;;4.73;;
22080;SDS011;11207;59.512;18.050;2022-11-10T02:45:52;9.17;;;4.43;;
22080;SDS011;11207;59.512;18.050;2022-11-10T02:48:18;15.33;;;5.10;;
22080;SDS011;11207;59.512;18.050;2022-11-10T02:50:44;12.77;;;4.50;;
22080;SDS011;11207;59.512;18.050;2022-11-10T02:53:09;10.20;;;4.97;;
22080;SDS011;11207;59.512;18.050;2022-11-10T02:55:35;9.17;;;4.60;;
22080;SDS011;11207;59.512;18.050;2022-11-10T02:58:01;11.30;;;4.63;;
22080;SDS011;11207;59.512;18.050;2022-11-10T03:00:27;12.93;;;4.13;;
22080;SDS011;11207;59.512;18.050;2022-11-10T03:02:57;7.83;;;4.10;;
22080;SDS011;11207;59.512;18.050;2022-11-10T03:05:23;7.47;;;4.90;;
22080;SDS011;11207;59.512;18.050;2022-11-10T03:07:57;10.33;;;4.83;;
22080;SDS011;11207;59.512;18.050;2022-11-10T03:10:24;12.63;;;4.43;;
22080;SDS011;11207;59.512;18.050;2022-11-10T03:12:54;9.57;;;4.27;;
22080;SDS011;11207;59.512;18.050;2022-11-10T03:15:24;7.77;;;4.50;;
22080;SDS011;11207;59.512;18.050;2022-11-10T03:17:50;9.87;;;5.03;;
22080;SDS011;11207;59.512;18.050;2022-11-10T03:20:16;11.57;;;4.80;;
22080;SDS011;11207;59.512;18.050;2022-11-10T03:22:42;10.10;;;5.37;;
22080;SDS011;11207;59.512;18.050;2022-11-10T03:25:08;8.50;;;4.40;;
22080;SDS011;11207;59.512;18.050;2022-11-10T03:27:34;8.27;;;4.40;;
22080;SDS011;11207;59.512;18.050;2022-11-10T03:30:00;9.47;;;4.57;;
22080;SDS011;11207;59.512;18.050;2022-11-10T03:32:25;9.30;;;4.83;;
22080;SDS011;11207;59.512;18.050;2022-11-10T03:34:51;10.27;;;4.80;;
22080;SDS011;11207;59.512;18.050;2022-11-10T03:37:17;7.10;;;4.50;;
22080;SDS011;11207;59.512;18.050;2022-11-10T03:39:42;7.73;;;4.73;;
22080;SDS011;11207;59.512;18.050;2022-11-10T03:42:08;7.27;;;4.50;;
22080;SDS011;11207;59.512;18.050;2022-11-10T03:44:34;9.77;;;4.43;;
22080;SDS011;11207;59.512;18.050;2022-11-10T03:46:59;8.17;;;3.83;;
22080;SDS011;11207;59.512;18.050;2022-11-10T03:49:27;6.73;;;4.20;;
22080;SDS011;11207;59.512;18.050;2022-11-10T03:51:54;11.83;;;4.43;;
22080;SDS011;11207;59.512;18.050;2022-11-10T03:54:20;10.50;;;4.40;;
22080;SDS011;11207;59.512;18.050;2022-11-10T03:56:46;10.97;;;4.90;;
22080;SDS011;11207;59.512;18.050;2022-11-10T03:59:11;9.77;;;3.93;;
22080;SDS011;11207;59.512;18.050;2022-11-10T04:01:37;16.37;;;4.20;;
22080;SDS011;11207;59.512;18.050;2022-11-10T04:04:03;8.70;;;4.43;;
22080;SDS011;11207;59.512;18.050;2022-11-10T04:06:28;6.17;;;4.03;;
22080;SDS011;11207;59.512;18.050;2022-11-10T04:09:12;12.20;;;4.80;;
22080;SDS011;11207;59.512;18.050;2022-11-10T04:11:38;7.50;;;4.37;;
22080;SDS011;11207;59.512;18.050;2022-11-10T04:14:22;7.83;;;4.47;;
22080;SDS011;11207;59.512;18.050;2022-11-10T04:17:06;9.93;;;4.83;;
22080;SDS011;11207;59.512;18.050;2022-11-10T04:19:33;10.33;;;4.93;;
22080;SDS011;11207;59.512;18.050;2022-11-10T04:21:59;12.57;;;4.20;;
22080;SDS011;11207;59.512;18.050;2022-11-10T04:24:25;10.40;;;4.30;;
22080;SDS011;11207;59.512;18.050;2022-11-10T04:26:51;12.60;;;5.03;;
22080;SDS011;11207;59.512;18.050;2022-11-10T04:29:17;15.43;;;5.50;;
22080;SDS011;11207;59.512;18.050;2022-11-10T04:31:44;12.07;;;5.17;;
22080;SDS011;11207;59.512;18.050;2022-11-10T04:34:11;12.60;;;4.47;;
22080;SDS011;11207;59.512;18.050;2022-11-10T04:36:38;11.50;;;4.93;;
22080;SDS011;11207;59.512;18.050;2022-11-10T04:39:06;9.73;;;4.90;;
22080;SDS011;11207;59.512;18.050;2022-11-10T04:41:32;16.80;;;5.73;;
22080;SDS011;11207;59.512;18.050;2022-11-10T04:43:58;11.00;;;5.13;;
22080;SDS011;11207;59.512;18.050;2022-11-10T04:48:55;13.70;;;5.20;;
22080;SDS011;11207;59.512;18.050;2022-11-10T04:51:23;9.73;;;4.50;;
22080;SDS011;11207;59.512;18.050;2022-11-10T04:53:51;9.27;;;4.40;;
22080;SDS011;11207;59.512;18.050;2022-11-10T04:56:17;12.57;;;4.60;;
22080;SDS011;11207;59.512;18.050;2022-11-10T04:58:44;10.03;;;4.13;;
22080;SDS011;11207;59.512;18.050;2022-11-10T05:01:11;7.67;;;3.97;;
22080;SDS011;11207;59.512;18.050;2022-11-10T05:03:38;9.57;;;4.23;;
22080;SDS011;11207;59.512;18.050;2022-11-10T05:06:04;8.33;;;3.77;;
22080;SDS011;11207;59.512;18.050;2022-11-10T05:08:29;9.90;;;3.87;;
22080;SDS011;11207;59.512;18.050;2022-11-10T05:10:55;12.53;;;4.40;;
22080;SDS011;11207;59.512;18.050;2022-11-10T05:13:21;7.60;;;3.73;;
22080;SDS011;11207;59.512;18.050;2022-11-10T05:15:46;7.73;;;3.77;;
22080;SDS011;11207;59.512;18.050;2022-11-10T05:18:12;10.20;;;3.57;;
22080;SDS011;11207;59.512;18.050;2022-11-10T05:20:38;6.07;;;3.53;;
22080;SDS011;11207;59.512;18.050;2022-11-10T05:23:03;7.77;;;4.00;;
22080;SDS011;11207;59.512;18.050;2022-11-10T05:25:47;7.57;;;3.50;;
22080;SDS011;11207;59.512;18.050;2022-11-10T05:28:13;8.77;;;4.33;;
22080;SDS011;11207;59.512;18.050;2022-11-10T05:30:40;10.17;;;4.40;;
22080;SDS011;11207;59.512;18.050;2022-11-10T05:33:06;11.73;;;4.00;;
22080;SDS011;11207;59.512;18.050;2022-11-10T05:35:32;6.60;;;3.53;;
22080;SDS011;11207;59.512;18.050;2022-11-10T05:37:58;15.10;;;4.13;;
22080;SDS011;11207;59.512;18.050;2022-11-10T05:40:24;5.47;;;3.50;;
22080;SDS011;11207;59.512;18.050;2022-11-10T05:42:50;6.97;;;3.27;;
22080;SDS011;11207;59.512;18.050;2022-11-10T05:45:20;8.93;;;3.67;;
22080;SDS011;11207;59.512;18.050;2022-11-10T05:47:47;8.77;;;3.80;;
22080;SDS011;11207;59.512;18.050;2022-11-10T05:50:13;10.30;;;4.03;;
22080;SDS011;11207;59.512;18.050;2022-11-10T05:52:43;11.70;;;4.17;;
22080;SDS011;11207;59.512;18.050;2022-11-10T05:55:10;9.07;;;3.37;;
22080;SDS011;11207;59.512;18.050;2022-11-10T05:57:37;7.00;;;3.80;;
22080;SDS011;11207;59.512;18.050;2022-11-10T06:00:04;9.67;;;3.60;;
22080;SDS011;11207;59.512;18.050;2022-11-10T06:02:30;8.57;;;3.83;;
22080;SDS011;11207;59.512;18.050;2022-11-10T06:04:56;11.13;;;3.60;;
22080;SDS011;11207;59.512;18.050;2022-11-10T06:07:21;15.03;;;3.63;;
22080;SDS011;11207;59.512;18.050;2022-11-10T06:09:47;16.33;;;4.37;;
22080;SDS011;11207;59.512;18.050;2022-11-10T06:12:13;7.53;;;3.53;;
22080;SDS011;11207;59.512;18.050;2022-11-10T06:14:39;8.87;;;3.37;;
22080;SDS011;11207;59.512;18.050;2022-11-10T06:17:05;7.57;;;3.47;;
22080;SDS011;11207;59.512;18.050;2022-11-10T06:19:31;8.20;;;3.77;;
22080;SDS011;11207;59.512;18.050;2022-11-10T06:21:57;10.23;;;3.70;;
22080;SDS011;11207;59.512;18.050;2022-11-10T06:24:23;8.50;;;3.27;;
22080;SDS011;11207;59.512;18.050;2022-11-10T06:26:48;12.93;;;3.93;;
22080;SDS011;11207;59.512;18.050;2022-11-10T06:29:14;11.50;;;3.43;;
22080;SDS011;11207;59.512;18.050;2022-11-10T06:31:40;5.93;;;3.60;;
22080;SDS011;11207;59.512;18.050;2022-11-10T06:34:05;8.27;;;3.13;;
22080;SDS011;11207;59.512;18.050;2022-11-10T06:36:31;7.70;;;3.80;;
22080;SDS011;11207;59.512;18.050;2022-11-10T06:38:57;7.53;;;3.47;;
22080;SDS011;11207;59.512;18.050;2022-11-10T06:41:22;10.17;;;4.00;;
22080;SDS011;11207;59.512;18.050;2022-11-10T06:43:48;8.40;;;3.80;;
22080;SDS011;11207;59.512;18.050;2022-11-10T06:46:14;15.60;;;4.23;;
22080;SDS011;11207;59.512;18.050;2022-11-10T06:48:39;9.53;;;3.63;;
22080;SDS011;11207;59.512;18.050;2022-11-10T06:51:05;9.10;;;3.50;;
22080;SDS011;11207;59.512;18.050;2022-11-10T06:53:31;9.37;;;3.97;;
22080;SDS011;11207;59.512;18.050;2022-11-10T06:55:57;9.90;;;4.47;;
22080;SDS011;11207;59.512;18.050;2022-11-10T06:58:22;11.00;;;4.10;;
22080;SDS011;11207;59.512;18.050;2022-11-10T07:00:48;9.77;;;4.03;;
22080;SDS011;11207;59.512;18.050;2022-11-10T07:03:14;9.97;;;3.77;;
22080;SDS011;11207;59.512;18.050;2022-11-10T07:05:40;5.67;;;3.53;;
22080;SDS011;11207;59.512;18.050;2022-11-10T07:08:10;15.20;;;4.30;;
22080;SDS011;11207;59.512;18.050;2022-11-10T07:10:43;18.13;;;4.30;;
22080;SDS011;11207;59.512;18.050;2022-11-10T07:13:14;7.97;;;3.63;;
22080;SDS011;11207;59.512;18.050;2022-11-10T07:15:40;13.80;;;4.60;;
22080;SDS011;11207;59.512;18.050;2022-11-10T07:18:06;10.13;;;3.87;;
22080;SDS011;11207;59.512;18.050;2022-11-10T07:20:32;9.47;;;4.03;;
22080;SDS011;11207;59.512;18.050;2022-11-10T07:22:59;15.63;;;5.80;;
22080;SDS011;11207;59.512;18.050;2022-11-10T07:25:27;15.33;;;6.63;;
22080;SDS011;11207;59.512;18.050;2022-11-10T07:27:54;15.43;;;5.70;;
22080;SDS011;11207;59.512;18.050;2022-11-10T07:30:20;11.27;;;5.50;;
22080;SDS011;11207;59.512;18.050;2022-11-10T07:32:46;14.43;;;4.53;;
22080;SDS011;11207;59.512;18.050;2022-11-10T07:35:20;9.43;;;4.23;;
22080;SDS011;11207;59.512;18.050;2022-11-10T07:37:46;11.27;;;4.17;;
22080;SDS011;11207;59.512;18.050;2022-11-10T07:40:12;12.70;;;4.20;;
22080;SDS011;11207;59.512;18.050;2022-11-10T07:42:38;9.07;;;4.10;;
22080;SDS011;11207;59.512;18.050;2022-11-10T07:45:04;9.20;;;3.70;;
22080;SDS011;11207;59.512;18.050;2022-11-10T07:47:30;10.23;;;4.27;;
22080;SDS011;11207;59.512;18.050;2022-11-10T07:49:56;9.00;;;4.10;;
22080;SDS011;11207;59.512;18.050;2022-11-10T07:52:21;7.37;;;3.80;;
22080;SDS011;11207;59.512;18.050;2022-11-10T07:54:47;10.33;;;3.90;;
22080;SDS011;11207;59.512;18.050;2022-11-10T07:57:12;9.67;;;3.87;;
22080;SDS011;11207;59.512;18.050;2022-11-10T07:59:38;11.50;;;4.07;;
22080;SDS011;11207;59.512;18.050;2022-11-10T08:02:04;10.33;;;3.93;;
22080;SDS011;11207;59.512;18.050;2022-11-10T08:04:30;10.37;;;3.70;;
22080;SDS011;11207;59.512;18.050;2022-11-10T08:06:56;8.37;;;3.80;;
22080;SDS011;11207;59.512;18.050;2022-11-10T08:09:22;8.80;;;3.73;;
22080;SDS011;11207;59.512;18.050;2022-11-10T08:11:48;12.93;;;3.80;;
22080;SDS011;11207;59.512;18.050;2022-11-10T08:14:13;12.77;;;3.50;;
22080;SDS011;11207;59.512;18.050;2022-11-10T08:16:39;11.10;;;3.40;;
22080;SDS011;11207;59.512;18.050;2022-11-10T08:19:05;8.50;;;3.30;;
22080;SDS011;11207;59.512;18.050;2022-11-10T08:21:31;8.90;;;4.00;;
22080;SDS011;11207;59.512;18.050;2022-11-10T08:23:57;13.30;;;4.40;;
22080;SDS011;11207;59.512;18.050;2022-11-10T08:26:23;9.43;;;3.57;;
22080;SDS011;11207;59.512;18.050;2022-11-10T08:28:48;9.40;;;3.30;;
22080;SDS011;11207;59.512;18.050;2022-11-10T08:31:14;10.47;;;3.70;;
22080;SDS011;11207;59.512;18.050;2022-11-10T08:33:39;13.63;;;4.00;;
22080;SDS011;11207;59.512;18.050;2022-11-10T08:36:05;12.50;;;3.90;;
22080;SDS011;11207;59.512;18.050;2022-11-10T08:38:31;17.80;;;5.17;;
22080;SDS011;11207;59.512;18.050;2022-11-10T08:40:57;17.50;;;5.30;;
22080;SDS011;11207;59.512;18.050;2022-11-10T08:43:22;10.77;;;4.10;;
22080;SDS011;11207;59.512;18.050;2022-11-10T08:45:48;10.67;;;3.53;;
22080;SDS011;11207;59.512;18.050;2022-11-10T08:48:23;6.67;;;3.03;;
22080;SDS011;11207;59.512;18.050;2022-11-10T08:50:49;15.40;;;4.60;;
22080;SDS011;11207;59.512;18.050;2022-11-10T08:53:16;10.83;;;4.10;;
22080;SDS011;11207;59.512;18.050;2022-11-10T08:55:44;12.20;;;3.97;;
22080;SDS011;11207;59.512;18.050;2022-11-10T08:58:11;9.17;;;3.63;;
22080;SDS011;11207;59.512;18.050;2022-11-10T09:00:38;15.47;;;4.07;;
22080;SDS011;11207;59.512;18.050;2022-11-10T09:03:05;11.13;;;3.67;;
22080;SDS011;11207;59.512;18.050;2022-11-10T09:05:33;9.10;;;3.40;;
22080;SDS011;11207;59.512;18.050;2022-11-10T09:08:00;10.37;;;3.97;;
22080;SDS011;11207;59.512;18.050;2022-11-10T09:10:26;9.40;;;3.67;;
22080;SDS011;11207;59.512;18.050;2022-11-10T09:12:52;7.83;;;3.17;;
22080;SDS011;11207;59.512;18.050;2022-11-10T09:15:18;13.10;;;3.47;;
22080;SDS011;11207;59.512;18.050;2022-11-10T09:17:44;8.33;;;3.40;;
22080;SDS011;11207;59.512;18.050;2022-11-10T09:20:10;8.60;;;3.57;;
22080;SDS011;11207;59.512;18.050;2022-11-10T09:22:38;13.17;;;3.97;;
22080;SDS011;11207;59.512;18.050;2022-11-10T09:25:04;9.60;;;3.33;;
22080;SDS011;11207;59.512;18.050;2022-11-10T09:27:30;11.83;;;3.43;;
22080;SDS011;11207;59.512;18.050;2022-11-10T09:29:59;13.93;;;3.63;;
22080;SDS011;11207;59.512;18.050;2022-11-10T09:32:24;10.77;;;3.93;;
22080;SDS011;11207;59.512;18.050;2022-11-10T09:34:50;9.43;;;3.20;;
22080;SDS011;11207;59.512;18.050;2022-11-10T09:37:15;9.53;;;3.67;;
22080;SDS011;11207;59.512;18.050;2022-11-10T09:39:41;10.87;;;3.50;;
22080;SDS011;11207;59.512;18.050;2022-11-10T09:44:48;10.97;;;3.17;;
22080;SDS011;11207;59.512;18.050;2022-11-10T09:47:22;14.73;;;3.60;;
22080;SDS011;11207;59.512;18.050;2022-11-10T09:49:57;8.10;;;3.17;;
22080;SDS011;11207;59.512;18.050;2022-11-10T09:52:26;9.27;;;3.10;;
22080;SDS011;11207;59.512;18.050;2022-11-10T09:54:58;7.57;;;2.90;;
22080;SDS011;11207;59.512;18.050;2022-11-10T09:57:38;7.33;;;2.83;;
22080;SDS011;11207;59.512;18.050;2022-11-10T10:00:11;7.00;;;2.90;;
22080;SDS011;11207;59.512;18.050;2022-11-10T10:02:43;6.73;;;3.00;;
22080;SDS011;11207;59.512;18.050;2022-11-10T10:11:21;10.13;;;3.80;;
22080;SDS011;11207;59.512;18.050;2022-11-10T10:24:17;16.17;;;3.27;;
22080;SDS011;11207;59.512;18.050;2022-11-10T10:26:51;12.30;;;3.10;;
22080;SDS011;11207;59.512;18.050;2022-11-10T10:29:21;8.53;;;3.43;;
22080;SDS011;11207;59.512;18.050;2022-11-10T10:31:49;14.10;;;4.27;;
22080;SDS011;11207;59.512;18.050;2022-11-10T10:34:17;6.83;;;2.80;;
22080;SDS011;11207;59.512;18.050;2022-11-10T10:36:46;11.37;;;3.10;;
22080;SDS011;11207;59.512;18.050;2022-11-10T10:39:15;6.47;;;2.73;;
22080;SDS011;11207;59.512;18.050;2022-11-10T10:41:50;10.00;;;2.73;;
22080;SDS011;11207;59.512;18.050;2022-11-10T10:44:16;11.10;;;3.40;;
22080;SDS011;11207;59.512;18.050;2022-11-10T10:46:50;10.50;;;2.90;;
22080;SDS011;11207;59.512;18.050;2022-11-10T10:49:27;12.63;;;3.10;;
22080;SDS011;11207;59.512;18.050;2022-11-10T10:54:39;9.67;;;2.97;;
22080;SDS011;11207;59.512;18.050;2022-11-10T10:59:52;8.87;;;3.13;;
22080;SDS011;11207;59.512;18.050;2022-11-10T11:03:04;8.37;;;3.30;;
22080;SDS011;11207;59.512;18.050;2022-11-10T11:05:31;7.07;;;2.47;;
22080;SDS011;11207;59.512;18.050;2022-11-10T11:07:58;7.07;;;2.57;;
22080;SDS011;11207;59.512;18.050;2022-11-10T11:10:26;9.20;;;2.90;;
22080;SDS011;11207;59.512;18.050;2022-11-10T11:12:54;15.47;;;3.77;;
22080;SDS011;11207;59.512;18.050;2022-11-10T11:15:36;9.43;;;2.93;;
22080;SDS011;11207;59.512;18.050;2022-11-10T11:18:02;9.37;;;2.97;;
22080;SDS011;11207;59.512;18.050;2022-11-10T11:20:39;9.47;;;2.80;;
22080;SDS011;11207;59.512;18.050;2022-11-10T11:23:55;9.77;;;3.27;;
22080;SDS011;11207;59.512;18.050;2022-11-10T11:26:42;9.07;;;2.47;;
22080;SDS011;11207;59.512;18.050;2022-11-10T11:29:22;10.43;;;2.97;;
22080;SDS011;11207;59.512;18.050;2022-11-10T11:48:22;10.23;;;3.13;;
22080;SDS011;11207;59.512;18.050;2022-11-10T11:50:56;14.23;;;3.43;;
22080;SDS011;11207;59.512;18.050;2022-11-10T11:58:49;8.77;;;3.07;;
22080;SDS011;11207;59.512;18.050;2022-11-10T12:01:33;8.43;;;2.83;;
22080;SDS011;11207;59.512;18.050;2022-11-10T12:04:13;9.03;;;2.83;;
22080;SDS011;11207;59.512;18.050;2022-11-10T12:07:18;12.80;;;2.67;;
22080;SDS011;11207;59.512;18.050;2022-11-10T12:13:29;7.00;;;2.70;;
22080;SDS011;11207;59.512;18.050;2022-11-10T12:16:18;8.70;;;2.80;;
22080;SDS011;11207;59.512;18.050;2022-11-10T12:24:25;10.33;;;2.73;;
22080;SDS011;11207;59.512;18.050;2022-11-10T12:29:34;13.13;;;2.80;;
22080;SDS011;11207;59.512;18.050;2022-11-10T12:40:44;10.27;;;2.70;;
22080;SDS011;11207;59.512;18.050;2022-11-10T12:43:26;7.20;;;2.40;;
22080;SDS011;11207;59.512;18.050;2022-11-10T12:46:10;15.20;;;3.60;;
22080;SDS011;11207;59.512;18.050;2022-11-10T12:48:39;8.63;;;2.93;;
22080;SDS011;11207;59.512;18.050;2022-11-10T12:53:48;9.60;;;2.50;;
22080;SDS011;11207;59.512;18.050;2022-11-10T12:56:27;12.30;;;2.53;;
22080;SDS011;11207;59.512;18.050;2022-11-10T13:02:33;9.80;;;3.30;;
22080;SDS011;11207;59.512;18.050;2022-11-10T13:11:35;9.37;;;2.80;;
22080;SDS011;11207;59.512;18.050;2022-11-10T13:13:44;11.30;;;3.20;;
22080;SDS011;11207;59.512;18.050;2022-11-10T13:19:09;11.10;;;2.93;;
22080;SDS011;11207;59.512;18.050;2022-11-10T13:24:24;6.90;;;2.43;;
22080;SDS011;11207;59.512;18.050;2022-11-10T13:26:55;13.27;;;2.70;;
22080;SDS011;11207;59.512;18.050;2022-11-10T13:34:38;8.73;;;2.70;;
22080;SDS011;11207;59.512;18.050;2022-11-10T13:45:30;11.27;;;2.80;;
22080;SDS011;11207;59.512;18.050;2022-11-10T13:53:52;13.93;;;3.50;;
22080;SDS011;11207;59.512;18.050;2022-11-10T13:56:34;10.63;;;2.50;;
22080;SDS011;11207;59.512;18.050;2022-11-10T13:59:21;11.80;;;3.20;;
22080;SDS011;11207;59.512;18.050;2022-11-10T14:01:50;10.57;;;3.00;;
22080;SDS011;11207;59.512;18.050;2022-11-10T14:07:12;13.07;;;3.13;;
22080;SDS011;11207;59.512;18.050;2022-11-10T14:09:45;9.50;;;2.87;;
22080;SDS011;11207;59.512;18.050;2022-11-10T14:12:21;10.23;;;2.80;;
22080;SDS011;11207;59.512;18.050;2022-11-10T14:15:38;12.07;;;3.23;;
22080;SDS011;11207;59.512;18.050;2022-11-10T14:17:48;10.40;;;3.20;;
22080;SDS011;11207;59.512;18.050;2022-11-10T14:22:51;10.33;;;2.90;;
22080;SDS011;11207;59.512;18.050;2022-11-10T14:27:47;8.77;;;3.13;;
22080;SDS011;11207;59.512;18.050;2022-11-10T14:32:53;13.90;;;3.67;;
22080;SDS011;11207;59.512;18.050;2022-11-10T14:35:29;14.60;;;3.23;;
22080;SDS011;11207;59.512;18.050;2022-11-10T14:38:00;12.27;;;3.40;;
22080;SDS011;11207;59.512;18.050;2022-11-10T14:40:27;9.90;;;2.80;;
22080;SDS011;11207;59.512;18.050;2022-11-10T14:42:54;10.60;;;3.00;;
22080;SDS011;11207;59.512;18.050;2022-11-10T14:45:21;12.60;;;3.10;;
22080;SDS011;11207;59.512;18.050;2022-11-10T14:47:52;16.20;;;3.63;;
22080;SDS011;11207;59.512;18.050;2022-11-10T14:50:22;6.13;;;2.70;;
22080;SDS011;11207;59.512;18.050;2022-11-10T14:53:00;8.13;;;3.30;;
22080;SDS011;11207;59.512;18.050;2022-11-10T14:55:31;13.87;;;3.33;;
22080;SDS011;11207;59.512;18.050;2022-11-10T14:58:04;12.63;;;4.60;;
22080;SDS011;11207;59.512;18.050;2022-11-10T15:00:42;10.60;;;3.40;;
22080;SDS011;11207;59.512;18.050;2022-11-10T15:06:05;16.70;;;3.50;;
22080;SDS011;11207;59.512;18.050;2022-11-10T15:08:33;14.97;;;3.67;;
22080;SDS011;11207;59.512;18.050;2022-11-10T15:11:00;14.63;;;3.00;;
22080;SDS011;11207;59.512;18.050;2022-11-10T15:19:18;9.43;;;3.47;;
22080;SDS011;11207;59.512;18.050;2022-11-10T15:21:45;14.93;;;3.40;;
22080;SDS011;11207;59.512;18.050;2022-11-10T15:24:11;11.17;;;3.17;;
22080;SDS011;11207;59.512;18.050;2022-11-10T15:26:37;10.87;;;2.93;;
22080;SDS011;11207;59.512;18.050;2022-11-10T15:29:04;14.63;;;3.60;;
22080;SDS011;11207;59.512;18.050;2022-11-10T15:31:31;11.43;;;3.27;;
22080;SDS011;11207;59.512;18.050;2022-11-10T15:33:58;11.90;;;3.30;;
22080;SDS011;11207;59.512;18.050;2022-11-10T15:39:16;13.90;;;3.27;;
22080;SDS011;11207;59.512;18.050;2022-11-10T15:41:48;11.53;;;3.37;;
22080;SDS011;11207;59.512;18.050;2022-11-10T15:44:16;12.20;;;3.40;;
22080;SDS011;11207;59.512;18.050;2022-11-10T15:46:41;10.93;;;3.37;;
22080;SDS011;11207;59.512;18.050;2022-11-10T15:51:59;13.07;;;3.80;;
22080;SDS011;11207;59.512;18.050;2022-11-10T15:54:29;11.77;;;3.40;;
22080;SDS011;11207;59.512;18.050;2022-11-10T15:56:59;14.03;;;3.60;;
22080;SDS011;11207;59.512;18.050;2022-11-10T15:59:25;11.43;;;3.50;;
22080;SDS011;11207;59.512;18.050;2022-11-10T16:01:50;14.93;;;3.73;;
22080;SDS011;11207;59.512;18.050;2022-11-10T16:04:16;9.10;;;3.20;;
22080;SDS011;11207;59.512;18.050;2022-11-10T16:06:42;13.87;;;3.57;;
22080;SDS011;11207;59.512;18.050;2022-11-10T16:09:10;14.37;;;3.70;;
22080;SDS011;11207;59.512;18.050;2022-11-10T16:11:37;12.27;;;3.67;;
22080;SDS011;11207;59.512;18.050;2022-11-10T16:14:08;14.00;;;3.43;;
22080;SDS011;11207;59.512;18.050;2022-11-10T16:16:38;12.10;;;3.90;;
22080;SDS011;11207;59.512;18.050;2022-11-10T16:19:08;12.53;;;3.53;;
22080;SDS011;11207;59.512;18.050;2022-11-10T16:21:34;18.83;;;3.77;;
22080;SDS011;11207;59.512;18.050;2022-11-10T16:24:00;15.33;;;3.97;;
22080;SDS011;11207;59.512;18.050;2022-11-10T16:26:26;13.23;;;3.30;;
22080;SDS011;11207;59.512;18.050;2022-11-10T16:28:52;17.03;;;3.97;;
22080;SDS011;11207;59.512;18.050;2022-11-10T16:31:18;17.97;;;3.63;;
22080;SDS011;11207;59.512;18.050;2022-11-10T16:33:46;9.23;;;3.23;;
22080;SDS011;11207;59.512;18.050;2022-11-10T16:36:23;16.57;;;3.47;;
22080;SDS011;11207;59.512;18.050;2022-11-10T16:38:51;11.60;;;4.00;;
22080;SDS011;11207;59.512;18.050;2022-11-10T16:41:34;13.57;;;4.30;;
22080;SDS011;11207;59.512;18.050;2022-11-10T16:44:00;15.13;;;4.17;;
22080;SDS011;11207;59.512;18.050;2022-11-10T16:46:27;9.70;;;3.70;;
22080;SDS011;11207;59.512;18.050;2022-11-10T16:48:54;23.87;;;4.10;;
22080;SDS011;11207;59.512;18.050;2022-11-10T16:51:26;17.17;;;3.77;;